Aérodrome :
LOGIN :

S'inscrire | Disclaimer

   EN    FR    IT 

 










Légende :    VFR   VFR Marginal   IFR   IFR Intensif   IFR Très Intensif
Visi : 
Plafond : 
>= 8 km
>= 3000ft
5 à 8 km
1000 à 3000 ft
1500m à 5 km
500 à 1000 ft
800 à 1500m
200 à 500 ft
< 800m
< 200 ft
Symboles :   Orages  Brouillard  Fortes neiges  Fortes précipitations  Vent > 20 kt
SIGMETs :   Divers  Orages  Givrage  Turbulence  Onde Orograph.  Cendres Volcan.






- Altitude de l'aérodrome : 436 ft
- Code IATA : ANG


LFBU - Angoulême Brie Champniers

DERNIER METAR :
  • 122130Z AUTO 22003KT 9000 NSC 07/07 Q1007

METARs EXPIRÉS :
  • 122100Z AUTO 25003KT 8000 3400 NSC 07/07 Q1007 NOSIG
  • 122030Z AUTO 19001KT 3000 1000 R28/1100D BR FEW043 BKN066 07/06 Q1007 BECMG 9999 NSW
  • 122000Z AUTO 27003KT 9999 BKN045 OVC060 07/07 Q1007 TEMPO 4000 -SHRA SCT010 BKN030TCU
  • 121930Z AUTO 25003KT 9999 FEW037 BKN047 OVC054 08/07 Q1007 TEMPO 4000 -SHRA SCT010 BKN030TCU
  • 121900Z AUTO 00000KT 9999 FEW026 SCT035 BKN041 07/07 Q1007 TEMPO 30010KT 4000 -SHRA SCT010 BKN030TCU

TAF TAF LFBU
Valide du 12 à 18h jusqu'au 13 à 18h UTC


121700Z 1218/1318 VRB02KT 9999 SCT040
TEMPO 1218/1221 30010KT 4000 -SHRA SCT010 BKN030TCU
PROB40 1223/1310 3000 BR BKN003
PROB30 1302/1308 0500 FG VV///
BECMG 1310/1312 23010KT
TEMPO 1316/1318 -SHRA



MET'MAP, la Météo Aéronautique d'un coup d'oeil ! - Copyright ORBIFLY Décembre 2007 - Disclaimer

ORBIFLY MET'MAP TEAM :

Programmation & Développement : Alexandra Zaïnal
Conception & Développement : Baudouin d'Aumeries
Co-Programmation & Développement : Marc-Olivier Méhu
Soutien technique & logistique : Manuel Goepfert

Contact : metmap@orbifly.com




SOURCES & CREDITS :

   NOAA